createdAt,value
2023-04-13T00:01:28.935Z,99207.63
2023-04-13T00:06:30.484Z,99196.31
2023-04-13T00:11:32.020Z,99184.03
2023-04-13T00:16:33.700Z,99181.63
2023-04-13T00:21:35.307Z,99167.25
2023-04-13T00:26:36.783Z,99175.84
2023-04-13T00:31:39.829Z,99165.69
2023-04-13T00:36:41.945Z,99166.81
2023-04-13T00:41:43.398Z,99162.72
2023-04-13T00:46:46.462Z,99162.47
2023-04-13T00:51:48.662Z,99159.03
2023-04-13T00:56:51.443Z,99167.66
2023-04-13T01:01:56.620Z,99163.41
2023-04-13T01:07:11.716Z,99159.47
2023-04-13T01:12:25.984Z,99176.22
2023-04-13T01:17:31.132Z,99176.50
2023-04-13T01:22:35.845Z,99178.47
2023-04-13T01:28:19.230Z,99187.56
2023-04-13T01:33:21.781Z,99184.38
2023-04-13T01:38:26.849Z,99198.97
2023-04-13T01:43:28.795Z,99194.56
2023-04-13T01:48:48.904Z,99207.09
2023-04-13T01:54:11.296Z,99210.91
2023-04-13T01:59:13.289Z,99221.72
2023-04-13T02:04:15.573Z,99228.84
2023-04-13T02:09:17.971Z,99229.38
2023-04-13T02:14:19.436Z,99233.13
2023-04-13T02:19:21.852Z,99249.09
2023-04-13T02:24:23.398Z,99247.41
2023-04-13T02:29:24.862Z,99249.25
2023-04-13T02:34:26.431Z,99251.44
2023-04-13T02:39:28.618Z,99247.56
2023-04-13T02:44:30.258Z,99262.19
2023-04-13T02:49:31.716Z,99275.72
2023-04-13T02:54:33.223Z,99278.25
2023-04-13T02:59:34.735Z,99287.94
2023-04-13T03:04:36.321Z,99284.09
2023-04-13T03:09:38.096Z,99290.19
2023-04-13T03:14:39.547Z,99293.94
2023-04-13T03:19:41.926Z,99306.13
2023-04-13T03:24:43.463Z,99300.78
2023-04-13T03:29:44.957Z,99305.88
2023-04-13T03:34:46.479Z,99308.94
2023-04-13T03:39:47.958Z,99326.84
2023-04-13T03:44:49.438Z,99334.31
2023-04-13T03:49:51.006Z,99333.47
2023-04-13T03:54:52.711Z,99340.75
2023-04-13T03:59:54.299Z,99344.31
2023-04-13T04:04:56.084Z,99350.56
2023-04-13T04:09:57.603Z,99347.16
2023-04-13T04:14:59.059Z,99337.97
2023-04-13T04:20:00.968Z,99349.97
2023-04-13T04:25:02.571Z,99355.03
2023-04-13T04:30:10.742Z,99370.78
2023-04-13T04:35:12.428Z,99366.31
2023-04-13T04:40:14.128Z,99370.03
2023-04-13T04:45:16.690Z,99381.00
2023-04-13T04:50:18.254Z,99388.81
2023-04-13T04:55:19.790Z,99412.34
2023-04-13T05:00:21.908Z,99404.03
2023-04-13T05:05:24.958Z,99414.88
2023-04-13T05:10:28.338Z,99418.59
2023-04-13T05:15:29.914Z,99426.94
2023-04-13T05:20:34.542Z,99433.03
2023-04-13T05:25:36.672Z,99445.19
2023-04-13T05:30:38.190Z,99442.31
2023-04-13T05:35:40.300Z,99446.88
2023-04-13T05:40:41.848Z,99446.88
2023-04-13T05:45:43.377Z,99450.28
2023-04-13T05:50:44.937Z,99458.75
2023-04-13T05:55:48.218Z,99465.53
2023-04-13T06:00:50.708Z,99473.28
2023-04-13T06:05:52.653Z,99474.78
2023-04-13T06:10:54.200Z,99493.91
2023-04-13T06:15:55.714Z,99511.81
2023-04-13T06:20:58.669Z,99522.75
2023-04-13T06:26:00.271Z,99516.81
2023-04-13T06:31:01.873Z,99511.91
2023-04-13T06:36:03.604Z,99521.63
2023-04-13T06:41:05.528Z,99530.03
2023-04-13T06:46:07.866Z,99531.72
2023-04-13T06:51:09.374Z,99545.16
2023-04-13T06:56:10.990Z,99550.38
2023-04-13T07:01:12.685Z,99552.13
2023-04-13T07:06:14.566Z,99572.22
2023-04-13T07:11:16.309Z,99573.09
2023-04-13T07:16:17.963Z,99570.44
2023-04-13T07:21:19.475Z,99582.56
2023-04-13T07:26:21.030Z,99593.31
2023-04-13T07:31:23.660Z,99598.78
2023-04-13T07:36:25.207Z,99614.81
2023-04-13T07:41:26.862Z,99612.22
2023-04-13T07:46:28.418Z,99619.47
2023-04-13T07:51:33.460Z,99630.75
2023-04-13T07:56:36.318Z,99625.53
2023-04-13T08:01:38.003Z,99635.94
2023-04-13T08:06:39.555Z,99651.59
2023-04-13T08:11:42.969Z,99661.53
2023-04-13T08:16:44.658Z,99657.63
2023-04-13T08:21:46.584Z,99670.09
2023-04-13T08:26:48.146Z,99699.09
2023-04-13T08:31:50.502Z,99699.03
2023-04-13T08:36:52.651Z,99706.16
2023-04-13T08:41:54.945Z,99714.53
2023-04-13T08:46:56.625Z,99719.97
2023-04-13T08:52:00.043Z,99744.09
2023-04-13T08:57:02.728Z,99741.59
2023-04-13T09:02:06.766Z,99753.59
2023-04-13T09:07:13.025Z,99762.41
2023-04-13T09:12:15.071Z,99781.47
2023-04-13T09:17:27.969Z,99794.84
2023-04-13T09:22:29.495Z,99807.19
2023-04-13T09:27:31.229Z,99810.94
2023-04-13T09:32:32.834Z,99823.16
2023-04-13T09:37:36.744Z,99839.59
2023-04-13T09:42:41.269Z,99847.09
2023-04-13T09:47:42.942Z,99866.63
2023-04-13T09:52:48.026Z,99865.38
2023-04-13T09:57:49.533Z,99868.63
2023-04-13T10:02:52.631Z,99891.28
2023-04-13T10:07:56.236Z,99889.47
2023-04-13T10:13:01.601Z,99912.97
2023-04-13T10:18:06.296Z,99917.94
2023-04-13T10:23:08.215Z,99933.34
2023-04-13T10:28:09.699Z,99947.59
2023-04-13T10:33:11.489Z,99946.81
2023-04-13T10:38:12.969Z,99962.69
2023-04-13T10:43:31.747Z,99978.72
2023-04-13T10:48:33.549Z,99983.81
2023-04-13T10:53:35.342Z,99981.38
2023-04-13T10:58:36.877Z,99998.75
2023-04-13T11:03:39.303Z,100010.22
2023-04-13T11:08:48.442Z,100016.25
2023-04-13T11:13:50.229Z,100021.06
2023-04-13T11:19:02.630Z,100034.06
2023-04-13T11:24:04.750Z,100047.56
2023-04-13T11:29:06.331Z,100045.38
2023-04-13T11:34:11.391Z,100050.47
2023-04-13T11:39:14.755Z,100070.44
2023-04-13T11:44:17.210Z,100096.25
2023-04-13T11:49:18.885Z,100103.50
2023-04-13T11:54:20.668Z,100113.97
2023-04-13T11:59:26.119Z,100108.94
2023-04-13T12:04:28.005Z,100110.72
2023-04-13T12:09:54.542Z,100124.00
2023-04-13T12:15:10.767Z,100139.22
2023-04-13T12:20:16.293Z,100137.91
2023-04-13T12:25:20.577Z,100151.94
2023-04-13T12:30:23.227Z,100160.56
2023-04-13T12:35:24.798Z,100163.13
2023-04-13T12:40:26.436Z,100157.22
2023-04-13T12:45:28.493Z,100174.31
2023-04-13T12:50:33.190Z,100191.28
2023-04-13T12:55:35.206Z,100193.66
2023-04-13T13:00:36.817Z,100192.00
2023-04-13T13:05:38.446Z,100209.88
2023-04-13T13:10:41.084Z,100215.78
2023-04-13T13:15:42.603Z,100218.19
2023-04-13T13:20:44.401Z,100223.88
2023-04-13T13:26:04.108Z,100245.59
2023-04-13T13:31:08.405Z,100253.47
2023-04-13T13:36:10.068Z,100258.66
2023-04-13T13:41:11.606Z,100274.84
2023-04-13T13:46:14.404Z,100277.88
2023-04-13T13:51:16.061Z,100291.81
2023-04-13T13:56:17.658Z,100283.28
2023-04-13T14:01:19.252Z,100291.47
2023-04-13T14:06:21.103Z,100289.56
2023-04-13T14:11:22.855Z,100295.66
2023-04-13T14:16:24.358Z,100305.72
2023-04-13T14:21:26.544Z,100299.44
2023-04-13T14:26:28.038Z,100307.28
2023-04-13T14:31:29.908Z,100312.16
2023-04-13T14:36:32.201Z,100322.00
2023-04-13T14:41:33.706Z,100329.06
2023-04-13T14:46:35.245Z,100339.56
2023-04-13T14:51:37.341Z,100354.50
2023-04-13T14:56:38.889Z,100357.63
2023-04-13T15:01:41.135Z,100374.91
2023-04-13T15:06:42.777Z,100365.88
2023-04-13T15:11:44.349Z,100367.59
2023-04-13T15:16:46.236Z,100360.97
2023-04-13T15:21:47.854Z,100361.72
2023-04-13T15:26:49.409Z,100356.47
2023-04-13T15:31:51.716Z,100373.69
2023-04-13T15:36:53.416Z,100360.44
2023-04-13T15:41:55.209Z,100373.03
2023-04-13T15:46:56.757Z,100382.06
2023-04-13T15:51:58.226Z,100387.50
2023-04-13T15:56:59.809Z,100389.41
2023-04-13T16:02:01.957Z,100383.63
2023-04-13T16:07:12.914Z,100394.88
2023-04-13T16:12:15.493Z,100401.34
2023-04-13T16:17:16.956Z,100409.13
2023-04-13T16:22:18.912Z,100406.41
2023-04-13T16:27:20.400Z,100414.78
2023-04-13T16:32:21.867Z,100426.59
2023-04-13T16:37:23.461Z,100433.22
2023-04-13T16:42:25.004Z,100423.03
2023-04-13T16:47:27.209Z,100432.91
2023-04-13T16:52:29.095Z,100443.28
2023-04-13T16:57:30.720Z,100440.41
2023-04-13T17:02:37.731Z,100449.25
2023-04-13T17:07:41.204Z,100450.41
2023-04-13T17:12:42.674Z,100456.06
2023-04-13T17:17:44.352Z,100457.56
2023-04-13T17:22:46.035Z,100474.44
2023-04-13T17:27:47.544Z,100463.03
2023-04-13T17:32:49.154Z,100475.97
2023-04-13T17:37:50.739Z,100482.63
2023-04-13T17:42:52.248Z,100475.31
2023-04-13T17:47:53.711Z,100485.53
2023-04-13T17:52:55.480Z,100496.94
2023-04-13T17:57:57.036Z,100508.38
2023-04-13T18:02:58.798Z,100520.09
2023-04-13T18:08:00.487Z,100529.13
2023-04-13T18:13:02.013Z,100535.91
2023-04-13T18:18:03.694Z,100545.97
2023-04-13T18:23:05.249Z,100551.22
2023-04-13T18:28:06.907Z,100549.34
2023-04-13T18:33:09.250Z,100559.03
2023-04-13T18:38:10.976Z,100567.00
2023-04-13T18:43:12.502Z,100584.00
2023-04-13T18:48:14.062Z,100592.81
2023-04-13T18:53:15.910Z,100596.19
2023-04-13T18:58:19.583Z,100602.09
2023-04-13T19:03:21.361Z,100600.72
2023-04-13T19:08:22.976Z,100606.13
2023-04-13T19:13:24.525Z,100620.38
2023-04-13T19:18:26.107Z,100623.03
2023-04-13T19:23:27.583Z,100630.16
2023-04-13T19:28:29.104Z,100630.47
2023-04-13T19:33:30.688Z,100627.38
2023-04-13T19:38:32.628Z,100635.78
2023-04-13T19:43:34.118Z,100645.59
2023-04-13T19:48:36.196Z,100652.50
2023-04-13T19:53:38.371Z,100655.69
2023-04-13T19:58:40.094Z,100664.31
2023-04-13T20:03:42.839Z,100670.41
2023-04-13T20:08:45.481Z,100673.56
2023-04-13T20:13:47.017Z,100675.19
2023-04-13T20:18:49.731Z,100679.69
2023-04-13T20:23:51.187Z,100679.25
2023-04-13T20:28:59.955Z,100684.50
2023-04-13T20:34:03.230Z,100692.72
2023-04-13T20:39:04.850Z,100691.25
2023-04-13T20:44:09.797Z,100701.84
2023-04-13T20:49:11.865Z,100713.03
2023-04-13T20:54:13.422Z,100711.34
2023-04-13T20:59:16.089Z,100715.84
2023-04-13T21:04:17.698Z,100719.69
2023-04-13T21:09:19.351Z,100730.69
2023-04-13T21:14:23.333Z,100733.41
2023-04-13T21:19:27.500Z,100744.13
2023-04-13T21:24:28.999Z,100753.09
2023-04-13T21:29:30.482Z,100754.53
2023-04-13T21:34:32.395Z,100759.50
2023-04-13T21:39:34.223Z,100759.06
2023-04-13T21:44:35.881Z,100760.47
2023-04-13T21:49:37.458Z,100757.75
2023-04-13T21:54:38.961Z,100755.19
2023-04-13T21:59:40.665Z,100753.63
2023-04-13T22:04:42.155Z,100758.34
2023-04-13T22:09:43.711Z,100755.22
2023-04-13T22:14:45.258Z,100753.84
2023-04-13T22:19:46.766Z,100755.66
2023-04-13T22:24:51.237Z,100757.84
2023-04-13T22:29:54.857Z,100758.13
2023-04-13T22:34:57.066Z,100756.44
2023-04-13T22:40:00.783Z,100761.13
2023-04-13T22:45:02.398Z,100754.00
2023-04-13T22:50:04.036Z,100756.47
2023-04-13T22:55:05.884Z,100760.31
2023-04-13T23:00:07.822Z,100753.47
2023-04-13T23:05:09.572Z,100752.06
2023-04-13T23:10:11.241Z,100750.91
2023-04-13T23:15:13.774Z,100754.47
2023-04-13T23:20:15.399Z,100760.91
2023-04-13T23:25:16.974Z,100755.63
2023-04-13T23:30:18.595Z,100753.03
2023-04-13T23:35:20.207Z,100772.34
2023-04-13T23:40:21.838Z,100768.78
2023-04-13T23:45:24.824Z,100773.63
2023-04-13T23:50:26.509Z,100773.78
2023-04-13T23:55:28.009Z,100776.50
